Time;durP1;ratioP1;P1;durP2;ratioP2;P2;SDS_P1;SDS_P2;PMS_P1;PMS_P2;Temp;Humidity;BMP_temperature;BMP_pressure;BME280_temperature;BME280_humidity;BME280_pressure;Samples;Min_cycle;Max_cycle;Signal;HPM_P1;HPM_P2
2021/04/22 00:07:05;;;;;;;32.43;22.40;;;;;;;9.10;65.04;98163.27;470416;1194;104665;-41
2021/04/22 00:17:12;;;;;;;27.75;17.95;;;;;;;9.23;65.06;98160.39;469197;1196;103204;-41
2021/04/22 00:27:16;;;;;;;25.07;17.70;;;;;;;9.38;64.86;98162.53;469397;1196;103510;-41
2021/04/22 00:37:20;;;;;;;31.03;18.40;;;;;;;9.36;65.06;98159.33;470029;1196;103207;-41
2021/04/22 00:47:25;;;;;;;26.90;18.13;;;;;;;9.26;64.99;98159.13;468858;1196;103216;-42
2021/04/22 00:57:32;;;;;;;24.10;18.63;;;;;;;9.13;65.00;98160.17;468783;1196;104708;-43
2021/04/22 01:07:37;;;;;;;21.00;14.55;;;;;;;9.00;64.95;98157.79;468935;1196;103219;-41
2021/04/22 01:17:41;;;;;;;24.27;16.33;;;;;;;8.84;65.35;98172.45;468810;1196;103233;-42
2021/04/22 01:27:45;;;;;;;25.00;17.30;;;;;;;8.71;65.51;98156.86;471354;1161;103238;-41
2021/04/22 01:37:50;;;;;;;26.23;16.43;;;;;;;8.58;65.77;98143.92;468919;1196;103280;-42
2021/04/22 01:47:55;;;;;;;21.90;14.33;;;;;;;8.57;65.78;98155.48;469259;1196;104456;-42
2021/04/22 01:58:04;;;;;;;17.33;13.30;;;;;;;8.50;65.85;98152.94;469750;1196;103207;-41
2021/04/22 02:08:09;;;;;;;24.00;16.13;;;;;;;8.12;65.93;98157.78;468700;1196;103626;-44
2021/04/22 02:18:13;;;;;;;28.60;16.47;;;;;;;7.89;66.23;98154.05;469671;1195;103528;-42
2021/04/22 02:28:18;;;;;;;23.87;16.90;;;;;;;7.61;66.48;98157.25;468893;1196;103589;-41
2021/04/22 02:38:22;;;;;;;28.73;16.90;;;;;;;7.46;66.75;98169.17;469904;1196;103252;-42
2021/04/22 02:48:27;;;;;;;22.83;15.67;;;;;;;7.30;66.83;98170.56;469527;1196;103229;-41
2021/04/22 02:58:32;;;;;;;22.23;13.63;;;;;;;7.23;67.00;98185.62;469450;1196;103580;-42
2021/04/22 03:08:37;;;;;;;25.70;16.17;;;;;;;6.92;67.54;98199.69;470049;1195;103210;-41
2021/04/22 03:18:41;;;;;;;67.80;39.00;;;;;;;6.58;68.01;98219.36;468619;1196;103290;-41
2021/04/22 03:28:47;;;;;;;24.10;15.00;;;;;;;6.47;68.93;98202.48;469143;1195;104674;-42
2021/04/22 03:38:54;;;;;;;36.83;21.63;;;;;;;6.33;68.62;98243.77;469719;1196;103212;-42
2021/04/22 03:49:00;;;;;;;43.07;24.17;;;;;;;6.43;69.03;98244.13;470105;1196;103494;-41
2021/04/22 03:59:05;;;;;;;91.27;45.20;;;;;;;6.53;69.09;98248.90;469243;1196;103222;-41
2021/04/22 04:09:09;;;;;;;93.83;47.43;;;;;;;6.56;69.61;98248.47;469018;1196;104611;-41
2021/04/22 04:19:13;;;;;;;59.37;33.13;;;;;;;6.64;69.29;98253.48;469681;1196;103568;-41
2021/04/22 04:29:19;;;;;;;38.20;25.43;;;;;;;6.84;69.31;98279.59;470121;1195;103219;-41
2021/04/22 04:39:23;;;;;;;56.00;31.00;;;;;;;6.99;69.99;98297.68;469192;1196;103191;-40
2021/04/22 04:49:28;;;;;;;44.93;25.33;;;;;;;7.07;70.25;98307.92;468912;1196;103260;-41
2021/04/22 04:59:32;;;;;;;76.97;40.50;;;;;;;7.08;70.64;98330.56;468872;1196;103247;-42
2021/04/22 05:09:37;;;;;;;60.93;34.07;;;;;;;6.91;71.26;98350.52;469634;1196;103208;-41
2021/04/22 05:19:41;;;;;;;47.97;28.53;;;;;;;6.88;71.17;98364.09;470332;1194;103252;-41
2021/04/22 05:29:46;;;;;;;36.60;23.00;;;;;;;6.81;73.08;98381.70;468631;1194;103679;-43
2021/04/22 05:39:50;;;;;;;34.07;18.50;;;;;;;6.72;76.09;98395.09;468968;1195;104710;-41
2021/04/22 05:49:54;;;;;;;26.85;16.20;;;;;;;6.43;76.84;98400.91;468785;1196;103268;-40
2021/04/22 05:59:59;;;;;;;18.35;10.95;;;;;;;6.15;77.69;98441.39;469785;1196;103206;-41
2021/04/22 06:10:06;;;;;;;14.73;7.37;;;;;;;5.66;77.75;98456.73;470396;1196;103567;-41
2021/04/22 06:20:15;;;;;;;13.97;7.73;;;;;;;5.34;78.05;98468.83;469218;1196;103331;-41
2021/04/22 06:30:21;;;;;;;20.00;9.28;;;;;;;5.26;77.73;98482.13;469112;1195;103169;-41
2021/04/22 06:40:26;;;;;;;22.27;9.87;;;;;;;5.26;77.53;98475.08;469245;1196;103622;-41
2021/04/22 06:50:30;;;;;;;8.63;6.30;;;;;;;5.47;77.47;98488.02;469130;1196;103545;-43
2021/04/22 07:00:38;;;;;;;21.90;7.80;;;;;;;5.57;76.78;98513.03;469411;1196;103177;-41
2021/04/22 07:10:43;;;;;;;18.27;7.07;;;;;;;5.82;76.31;98512.24;468923;1196;103488;-43
2021/04/22 07:20:48;;;;;;;23.43;9.47;;;;;;;6.31;76.27;98516.27;468611;1196;103207;-41
2021/04/22 07:30:53;;;;;;;24.17;8.93;;;;;;;7.12;75.98;98528.96;469812;1195;103619;-42
2021/04/22 07:40:57;;;;;;;13.75;4.00;;;;;;;7.58;73.82;98525.27;468474;1196;103213;-42
2021/04/22 07:51:02;;;;;;;17.37;6.43;;;;;;;6.87;71.89;98549.89;468110;1195;103513;-42
2021/04/22 08:01:06;;;;;;;19.23;6.83;;;;;;;7.27;71.26;98558.40;468479;1196;103228;-43
2021/04/22 08:11:10;;;;;;;13.50;4.30;;;;;;;8.51;70.67;98556.91;469277;1196;103303;-42
2021/04/22 08:21:15;;;;;;;14.63;6.17;;;;;;;9.36;68.35;98552.48;468420;1196;103280;-41
2021/04/22 08:31:23;;;;;;;13.83;5.33;;;;;;;9.56;65.17;98552.22;468792;1195;103568;-42
2021/04/22 08:41:27;;;;;;;10.23;4.23;;;;;;;8.32;63.13;98577.14;469063;1195;103536;-41
2021/04/22 08:51:32;;;;;;;21.50;7.27;;;;;;;8.09;63.42;98579.56;468718;1196;103219;-41
2021/04/22 09:01:40;;;;;;;24.00;8.90;;;;;;;8.70;64.45;98592.01;468809;1196;103191;-41
2021/04/22 09:11:47;;;;;;;16.10;10.27;;;;;;;8.10;60.24;98597.78;469259;1196;104669;-42
2021/04/22 09:21:53;;;;;;;12.27;4.97;;;;;;;8.33;59.42;98606.93;468707;1196;103216;-42
2021/04/22 09:32:09;;;;;;;13.83;7.60;;;;;;;9.25;55.71;98599.95;468441;1196;103363;-41
2021/04/22 09:42:17;;;;;;;9.67;4.10;;;;;;;9.07;53.61;98600.75;469355;1196;103213;-40
2021/04/22 09:52:22;;;;;;;12.90;4.33;;;;;;;9.59;54.04;98607.20;469846;1196;103216;-42
2021/04/22 10:02:28;;;;;;;13.93;5.50;;;;;;;10.24;53.27;98615.23;469016;1196;103253;-40
2021/04/22 10:12:35;;;;;;;16.53;7.40;;;;;;;10.27;52.35;98609.49;469174;1196;104678;-40
2021/04/22 10:22:42;;;;;;;11.30;4.23;;;;;;;9.78;48.48;98605.33;468730;1196;103561;-41
2021/04/22 10:32:47;;;;;;;9.57;4.40;;;;;;;10.06;49.07;98597.59;468734;1196;103284;-41
2021/04/22 10:42:54;;;;;;;9.50;4.40;;;;;;;10.48;50.46;98602.05;470461;1196;103628;-41
2021/04/22 11:03:23;;;;;;;11.80;3.67;;;;;;;10.57;45.29;98590.89;469333;1196;103207;-41
2021/04/22 11:13:33;;;;;;;6.95;3.50;;;;;;;10.30;45.32;98601.10;470009;1196;103258;-41
2021/04/22 11:23:40;;;;;;;12.10;4.60;;;;;;;10.31;46.65;98610.64;468902;1196;103559;-40
2021/04/22 11:33:45;;;;;;;10.60;3.87;;;;;;;10.55;45.16;98581.58;469098;1196;103590;-39
2021/04/22 11:54:19;;;;;;;12.05;4.45;;;;;;;10.71;46.05;98578.24;468655;1196;103203;-40
2021/04/22 12:14:52;;;;;;;;;;;;;;;11.31;48.07;98575.23;468715;1202;103194;-42
2021/04/22 12:24:57;;;;;;;13.60;5.33;;;;;;;11.60;46.65;98550.38;468474;1196;103577;-40
2021/04/22 12:35:01;;;;;;;14.10;5.70;;;;;;;11.37;46.23;98561.08;468457;1196;103209;-42
2021/04/22 12:45:11;;;;;;;10.93;4.70;;;;;;;10.94;45.21;98548.31;468592;1196;104364;-40
2021/04/22 12:55:18;;;;;;;14.00;5.60;;;;;;;10.72;44.08;98563.98;468413;1196;103178;-41
2021/04/22 13:05:23;;;;;;;17.57;7.47;;;;;;;10.57;45.43;98566.28;468438;1196;103171;-43
2021/04/22 13:15:27;;;;;;;16.47;6.03;;;;;;;10.51;43.72;98567.22;468590;1195;103972;-41
2021/04/22 13:25:34;;;;;;;19.37;6.27;;;;;;;10.26;44.48;98560.31;469149;1196;103555;-41
2021/04/22 13:35:40;;;;;;;18.65;6.95;;;;;;;10.77;45.07;98566.73;469343;1196;103206;-41
2021/04/22 13:45:46;;;;;;;14.13;6.97;;;;;;;10.46;45.06;98562.63;468599;1196;103514;-42
2021/04/22 13:55:49;;;;;;;15.95;8.10;;;;;;;10.55;44.37;98555.14;469030;1196;103593;-41
2021/04/22 14:05:53;;;;;;;14.13;5.63;;;;;;;10.51;44.30;98546.88;469179;1196;103587;-40
2021/04/22 14:15:58;;;;;;;23.03;8.00;;;;;;;10.69;43.15;98557.33;468221;1196;103631;-41
2021/04/22 14:26:03;;;;;;;14.93;6.40;;;;;;;10.66;43.25;98562.27;468660;1196;104653;-41
2021/04/22 14:36:09;;;;;;;10.30;5.00;;;;;;;10.54;43.93;98572.04;468683;1196;103558;-41
2021/04/22 14:46:24;;;;;;;18.87;8.60;;;;;;;10.28;42.93;98576.75;469343;1196;103563;-41
2021/04/22 14:56:29;;;;;;;9.80;3.53;;;;;;;10.19;41.82;98579.94;468360;1195;103216;-41
2021/04/22 15:06:35;;;;;;;8.97;3.53;;;;;;;10.20;41.94;98587.63;468517;1196;103238;-41
2021/04/22 15:16:39;;;;;;;8.47;4.43;;;;;;;10.10;41.51;98588.17;468638;1196;103229;-42
2021/04/22 15:26:46;;;;;;;7.30;3.70;;;;;;;10.18;40.91;98589.70;468376;1196;103216;-41
2021/04/22 15:36:50;;;;;;;10.70;4.23;;;;;;;10.05;41.38;98589.89;468531;1196;104053;-41
2021/04/22 15:46:54;;;;;;;6.60;2.40;;;;;;;9.96;39.10;98602.64;468542;1195;103475;-41
2021/04/22 15:56:58;;;;;;;12.80;3.43;;;;;;;9.73;38.97;98597.28;468622;1196;103548;-41
2021/04/22 16:07:03;;;;;;;6.60;2.55;;;;;;;9.54;39.39;98610.52;468155;1196;103209;-42
2021/04/22 16:17:11;;;;;;;9.77;2.80;;;;;;;9.37;39.97;98611.35;469089;1195;103150;-41
2021/04/22 16:27:15;;;;;;;13.83;3.67;;;;;;;9.16;41.65;98626.60;468662;1196;103510;-42
2021/04/22 16:37:19;;;;;;;19.93;4.47;;;;;;;8.88;43.07;98628.95;469108;1196;103555;-41
2021/04/22 16:47:23;;;;;;;15.67;5.47;;;;;;;8.76;43.81;98638.61;468688;1196;103302;-40
2021/04/22 17:18:06;;;;;;;17.65;4.85;;;;;;;7.95;43.10;98665.73;468780;1195;103219;-40
2021/04/22 17:28:10;;;;;;;27.20;10.03;;;;;;;7.66;43.78;98681.07;468815;1196;103609;-42
2021/04/22 17:38:14;;;;;;;26.53;8.73;;;;;;;7.38;44.46;98689.28;470243;1196;103299;-42
2021/04/22 17:48:19;;;;;;;15.20;6.20;;;;;;;7.13;45.07;98703.31;468511;1196;103593;-41
2021/04/22 17:58:27;;;;;;;15.60;5.20;;;;;;;6.82;45.91;98709.20;468760;1196;103340;-41
2021/04/22 18:08:32;;;;;;;29.97;10.63;;;;;;;6.58;46.51;98721.93;470415;1196;103216;-41
2021/04/22 18:18:36;;;;;;;72.40;22.40;;;;;;;6.30;47.03;98723.92;469707;1196;103228;-40
2021/04/22 18:28:40;;;;;;;48.33;20.73;;;;;;;6.01;47.38;98765.27;469950;1196;103292;-41
2021/04/22 18:38:46;;;;;;;23.40;10.50;;;;;;;5.81;49.94;98772.21;468837;1196;104435;-41
2021/04/22 18:48:51;;;;;;;23.73;9.73;;;;;;;5.58;50.51;98784.81;470283;1195;103214;-41
2021/04/22 18:58:55;;;;;;;21.13;9.10;;;;;;;5.38;51.40;98801.23;468348;1196;103562;-42
2021/04/22 19:19:19;;;;;;;42.50;14.80;;;;;;;4.98;52.57;98815.06;469449;1196;103593;-42
2021/04/22 19:29:23;;;;;;;71.25;25.00;;;;;;;4.79;53.16;98827.80;469773;1196;103564;-42
2021/04/22 19:39:32;;;;;;;70.65;27.70;;;;;;;4.64;53.78;98837.52;469721;1196;104358;-42
2021/04/22 19:49:36;;;;;;;27.60;11.50;;;;;;;4.57;54.67;98854.98;468927;1196;103667;-42
2021/04/22 19:59:41;;;;;;;24.55;10.85;;;;;;;4.53;54.77;98843.25;469509;1196;103228;-41
2021/04/22 20:09:45;;;;;;;33.93;13.20;;;;;;;4.47;55.48;98844.78;469218;1195;103603;-41
2021/04/22 20:19:49;;;;;;;32.65;13.55;;;;;;;4.33;55.70;98850.08;469407;1196;103565;-41
2021/04/22 20:29:53;;;;;;;25.73;10.80;;;;;;;4.18;56.05;98855.33;469704;1196;103581;-42
2021/04/22 20:39:58;;;;;;;50.27;19.00;;;;;;;4.08;56.08;98866.09;470561;1195;103213;-41
2021/04/22 20:50:02;;;;;;;43.20;18.30;;;;;;;4.00;56.62;98861.74;470377;1196;103578;-42
2021/04/22 21:00:09;;;;;;;21.27;8.33;;;;;;;3.86;57.01;98867.00;469662;1195;103520;-41
2021/04/22 21:10:16;;;;;;;20.07;9.70;;;;;;;3.80;57.08;98879.00;469407;1196;103213;-41
2021/04/22 21:20:22;;;;;;;33.50;16.23;;;;;;;3.87;57.38;98889.55;469409;1196;103631;-41
2021/04/22 21:30:30;;;;;;;35.60;15.30;;;;;;;3.72;57.44;98884.30;468644;1196;103239;-42
2021/04/22 21:40:34;;;;;;;37.03;16.47;;;;;;;3.56;58.69;98884.48;469381;1196;103182;-43
2021/04/22 21:50:39;;;;;;;51.63;25.50;;;;;;;3.55;58.31;98881.06;469419;1196;103289;-41
2021/04/22 22:00:43;;;;;;;38.07;16.80;;;;;;;3.60;58.87;98886.56;469604;1194;103267;-42
2021/04/22 22:10:48;;;;;;;22.40;11.60;;;;;;;3.53;58.79;98887.42;470336;1195;103204;-42
2021/04/22 22:20:53;;;;;;;30.83;11.53;;;;;;;3.30;59.20;98890.08;469666;1195;103217;-41
2021/04/22 22:30:59;;;;;;;25.20;15.40;;;;;;;3.20;59.49;98889.53;469661;1195;104682;-41
2021/04/22 22:41:05;;;;;;;20.77;10.97;;;;;;;3.24;60.06;98898.64;469542;1196;103264;-42
2021/04/22 22:51:09;;;;;;;23.50;10.20;;;;;;;3.06;60.34;98907.58;469776;1196;103674;-41
2021/04/22 23:01:14;;;;;;;28.70;9.90;;;;;;;3.13;61.19;98917.36;469809;1196;103230;-41
2021/04/22 23:11:19;;;;;;;15.10;6.95;;;;;;;2.92;60.98;98910.16;469306;1195;103944;-41
2021/04/22 23:21:23;;;;;;;13.70;6.63;;;;;;;2.76;61.18;98922.32;468630;1195;103595;-42
2021/04/22 23:31:27;;;;;;;15.87;5.87;;;;;;;2.69;61.38;98917.97;468891;1196;103520;-42
2021/04/22 23:41:32;;;;;;;15.03;7.53;;;;;;;2.63;62.00;98918.66;469627;1195;103552;-42
2021/04/22 23:51:36;;;;;;;22.10;8.90;;;;;;;2.60;62.45;98906.77;469074;1195;103520;-42
